KLSE/LSE METAR and TAF weather

Enter ICAO airport designator
Station Type Date Time Source
KLSE METAR 2020/01/26 18:53 UTC NOAA

KLSE 261853Z 29004KT 10SM OVC010 M02/M05 A2991 RMK AO2 SLP141 T10171050


Station Type Date Time Source
KLSE Decoded METAR 2020/01/26 18:53 UTC NOAA

LA CROSSE MUNICIPAL AIRPORT , WI, United States (KLSE) 43-53N 091-15W 200M
Jan 26, 2020 - 01:53 PM EST / 2020.01.26 1853 UTC
Wind: from the WNW (290 degrees) at 5 MPH (4 KT):0
Visibility: 10 mile(s):0
Sky conditions: overcast
Temperature: 28.9 F (-1.7 C)
Windchill: 23 F (-5 C):1
Dew Point: 23.0 F (-5.0 C)
Relative Humidity: 78%
Pressure (altimeter): 29.91 in. Hg (1012 hPa)
ob: KLSE 261853Z 29004KT 10SM OVC010 M02/M05 A2991 RMK AO2 SLP141 T10171050
cycle: 19

Station Type Date Time Source
KLSE TAF 2020/01/26 18:33 UTC NOAA

TAF KLSE 261730Z 2618/2718 28005KT P6SM OVC009
FM262000 29005KT P6SM OVC012
FM270600 VRB03KT P6SM OVC009

Example: see airport list